Time;durP1;ratioP1;P1;durP2;ratioP2;P2;SDS_P1;SDS_P2;PMS_P1;PMS_P2;Temp;Humidity;BMP_temperature;BMP_pressure;BME280_temperature;BME280_humidity;BME280_pressure;Samples;Min_cycle;Max_cycle;Signal;HPM_P1;HPM_P2
2022/12/21 00:00:13;;;;;;;;;;;21.10;62.80;;;;;;6349798;28;19919;-60
2022/12/21 00:03:14;;;;;;;;;;;21.10;63.10;;;;;;6350002;28;19920;-60
2022/12/21 00:06:16;;;;;;;;;;;20.90;63.10;;;;;;6349855;28;19954;-60
2022/12/21 00:09:17;;;;;;;;;;;20.50;62.90;;;;;;6349646;28;19927;-60
2022/12/21 00:12:18;;;;;;;;;;;20.70;62.70;;;;;;6350222;28;19919;-59
2022/12/21 00:15:20;;;;;;;;;;;20.50;62.80;;;;;;6349965;28;19920;-59
2022/12/21 00:18:21;;;;;;;;;;;20.50;62.90;;;;;;6350102;28;20279;-60
2022/12/21 00:21:24;;;;;;;;;;;20.30;62.70;;;;;;6349901;28;19920;-59
2022/12/21 00:24:27;;;;;;;;;;;20.60;62.80;;;;;;6349594;28;19920;-59
2022/12/21 00:27:29;;;;;;;;;;;21.30;63.20;;;;;;6350322;28;19920;-59
2022/12/21 00:30:30;;;;;;;;;;;20.60;63.00;;;;;;6349762;28;19926;-59
2022/12/21 00:33:32;;;;;;;;;;;20.60;62.30;;;;;;6349091;28;19919;-59
2022/12/21 00:36:36;;;;;;;;;;;20.80;63.10;;;;;;6349533;28;19927;-59
2022/12/21 00:39:38;;;;;;;;;;;20.50;62.70;;;;;;6349333;28;19924;-60
2022/12/21 00:42:42;;;;;;;;;;;20.80;62.80;;;;;;6349358;28;20343;-59
2022/12/21 00:45:43;;;;;;;;;;;21.00;62.70;;;;;;6348672;28;19927;-59
2022/12/21 00:48:45;;;;;;;;;;;20.90;63.00;;;;;;6349295;28;20061;-59
2022/12/21 00:51:46;;;;;;;;;;;20.70;62.90;;;;;;6349272;28;19927;-60
2022/12/21 00:54:48;;;;;;;;;;;20.80;63.00;;;;;;6348771;28;20028;-59
2022/12/21 00:57:49;;;;;;;;;;;21.30;63.30;;;;;;6348935;28;20367;-60
2022/12/21 01:00:51;;;;;;;;;;;20.60;62.80;;;;;;6349885;28;20002;-60
2022/12/21 01:03:53;;;;;;;;;;;20.70;62.90;;;;;;6348805;28;19920;-59
2022/12/21 01:06:55;;;;;;;;;;;20.90;62.80;;;;;;6349290;28;19920;-59
2022/12/21 01:09:56;;;;;;;;;;;21.00;62.90;;;;;;6348131;28;19928;-59
2022/12/21 01:12:57;;;;;;;;;;;20.80;62.80;;;;;;6349305;28;19927;-59
2022/12/21 01:15:59;;;;;;;;;;;20.30;62.80;;;;;;6348410;28;19919;-60
2022/12/21 01:19:01;;;;;;;;;;;20.80;63.00;;;;;;6348595;28;19926;-60
2022/12/21 01:22:03;;;;;;;;;;;20.50;62.60;;;;;;6348406;28;19927;-60
2022/12/21 01:25:05;;;;;;;;;;;20.30;63.30;;;;;;6348201;28;19919;-59
2022/12/21 01:28:06;;;;;;;;;;;21.20;63.00;;;;;;6348568;28;19930;-60
2022/12/21 01:31:08;;;;;;;;;;;20.70;62.90;;;;;;6348467;28;20272;-60
2022/12/21 01:34:10;;;;;;;;;;;20.60;61.90;;;;;;6348132;28;19927;-59
2022/12/21 01:37:12;;;;;;;;;;;20.50;62.70;;;;;;6348498;28;19920;-60
2022/12/21 01:40:13;;;;;;;;;;;20.30;62.60;;;;;;6348204;28;20386;-59
2022/12/21 01:43:16;;;;;;;;;;;20.40;62.40;;;;;;6347546;28;19920;-59
2022/12/21 01:46:20;;;;;;;;;;;21.20;62.90;;;;;;6346791;28;19920;-60
2022/12/21 01:49:24;;;;;;;;;;;20.70;62.70;;;;;;6348122;28;19919;-60
2022/12/21 01:52:27;;;;;;;;;;;20.70;62.70;;;;;;6348547;28;19920;-59
2022/12/21 01:55:29;;;;;;;;;;;20.40;62.40;;;;;;6348192;28;19927;-59
2022/12/21 01:58:32;;;;;;;;;;;21.10;62.90;;;;;;6347119;28;19919;-59
2022/12/21 02:01:33;;;;;;;;;;;20.60;62.60;;;;;;6347551;28;20271;-59
2022/12/21 02:04:35;;;;;;;;;;;21.20;62.90;;;;;;6348098;28;19920;-59
2022/12/21 02:07:37;;;;;;;;;;;20.20;62.40;;;;;;6347959;28;20504;-59
2022/12/21 02:10:39;;;;;;;;;;;20.40;62.50;;;;;;6347862;28;20393;-59
2022/12/21 02:13:41;;;;;;;;;;;20.50;61.70;;;;;;6348132;28;20274;-59
2022/12/21 02:16:53;;;;;;;;;;;20.40;62.50;;;;;;6348539;28;19963;-60
2022/12/21 02:20:08;;;;;;;;;;;20.80;62.50;;;;;;6347665;28;20371;-59
2022/12/21 02:23:19;;;;;;;;;;;20.50;62.20;;;;;;6347882;28;19920;-59
2022/12/21 02:26:35;;;;;;;;;;;20.70;62.40;;;;;;6347940;28;19920;-59
2022/12/21 02:29:52;;;;;;;;;;;21.00;62.60;;;;;;6347677;28;19924;-59
2022/12/21 02:33:00;;;;;;;;;;;20.20;62.20;;;;;;6347212;28;19927;-60
2022/12/21 02:36:07;;;;;;;;;;;20.60;61.90;;;;;;6347536;28;19968;-59
2022/12/21 02:39:12;;;;;;;;;;;20.30;62.40;;;;;;6347324;28;20015;-59
2022/12/21 02:44:12;;;;;;;;;;;20.20;62.10;;;;;;6346307;28;19919;-60
2022/12/21 02:45:42;;;;;;;;;;;20.80;62.60;;;;;;6346469;28;19926;-59
2022/12/21 02:48:49;;;;;;;;;;;20.60;62.40;;;;;;6346140;28;20303;-60
2022/12/21 02:51:54;;;;;;;;;;;20.10;62.20;;;;;;6347559;28;19919;-60
2022/12/21 02:54:57;;;;;;;;;;;20.60;62.40;;;;;;6347209;28;19920;-59
2022/12/21 02:58:14;;;;;;;;;;;20.50;62.30;;;;;;6346743;28;19919;-59
2022/12/21 03:01:24;;;;;;;;;;;20.80;62.20;;;;;;6346143;28;19926;-59
2022/12/21 03:04:35;;;;;;;;;;;20.50;62.20;;;;;;6347145;28;19965;-59
2022/12/21 03:07:41;;;;;;;;;;;20.60;62.30;;;;;;6347097;28;19986;-59
2022/12/21 03:10:49;;;;;;;;;;;20.40;62.20;;;;;;6346878;28;19927;-60
2022/12/21 03:13:56;;;;;;;;;;;20.60;62.10;;;;;;6347113;28;19927;-59
2022/12/21 03:17:00;;;;;;;;;;;20.70;62.30;;;;;;6346925;28;19934;-59
2022/12/21 03:20:06;;;;;;;;;;;20.60;62.30;;;;;;6346783;28;19920;-59
2022/12/21 03:23:10;;;;;;;;;;;20.40;62.00;;;;;;6346998;28;19968;-59
2022/12/21 03:26:15;;;;;;;;;;;20.50;62.10;;;;;;6346855;28;20010;-59
2022/12/21 03:29:19;;;;;;;;;;;20.70;62.20;;;;;;6346705;28;19920;-59
2022/12/21 03:32:22;;;;;;;;;;;20.20;61.60;;;;;;6347572;28;19920;-59
2022/12/21 03:35:26;;;;;;;;;;;20.60;61.60;;;;;;6351054;28;19920;-59
2022/12/21 03:38:31;;;;;;;;;;;20.30;62.00;;;;;;6351215;28;20390;-60
2022/12/21 03:41:37;;;;;;;;;;;20.20;61.90;;;;;;6349576;28;19920;-59
2022/12/21 03:44:40;;;;;;;;;;;21.00;62.40;;;;;;6350776;28;20016;-60
2022/12/21 03:47:45;;;;;;;;;;;20.60;62.10;;;;;;6350708;28;19989;-59
2022/12/21 03:50:49;;;;;;;;;;;20.30;62.00;;;;;;6351222;28;19920;-59
2022/12/21 03:53:54;;;;;;;;;;;20.60;62.20;;;;;;6350608;28;19919;-59
2022/12/21 03:56:56;;;;;;;;;;;20.30;61.80;;;;;;6350578;28;19919;-60
2022/12/21 03:59:59;;;;;;;;;;;20.40;61.90;;;;;;6350826;28;19927;-60
2022/12/21 04:03:02;;;;;;;;;;;20.60;61.50;;;;;;6350446;28;19923;-60
2022/12/21 04:06:07;;;;;;;;;;;20.50;61.80;;;;;;6350368;28;19920;-60
2022/12/21 04:09:09;;;;;;;;;;;20.20;61.80;;;;;;6350176;28;19927;-59
2022/12/21 04:16:03;;;;;;;;;;;20.60;61.70;;;;;;6349148;28;20469;-59
2022/12/21 04:22:05;;;;;;;;;;;20.50;63.10;;;;;;6350098;28;19965;-60
2022/12/21 04:28:25;;;;;;;;;;;20.80;63.10;;;;;;6349908;28;19920;-59
2022/12/21 04:31:46;;;;;;;;;;;20.40;63.30;;;;;;6334700;28;20072;-59
2022/12/21 04:34:48;;;;;;;;;;;20.60;62.80;;;;;;6350197;28;19947;-59
2022/12/21 04:37:50;;;;;;;;;;;20.40;63.10;;;;;;6350135;28;19926;-59
2022/12/21 04:40:52;;;;;;;;;;;20.60;63.30;;;;;;6350512;28;19920;-59
2022/12/21 04:43:53;;;;;;;;;;;20.50;62.70;;;;;;6348479;28;19920;-60
2022/12/21 04:46:54;;;;;;;;;;;20.90;63.40;;;;;;6349559;28;19926;-59
2022/12/21 04:49:55;;;;;;;;;;;20.40;63.40;;;;;;6349391;28;19934;-59
2022/12/21 04:52:58;;;;;;;;;;;20.40;63.30;;;;;;6349901;28;19923;-59
2022/12/21 04:56:00;;;;;;;;;;;20.70;63.50;;;;;;6349440;28;20436;-59
2022/12/21 04:59:01;;;;;;;;;;;21.10;63.60;;;;;;6349166;28;19924;-59
2022/12/21 05:02:02;;;;;;;;;;;20.20;63.20;;;;;;6349692;28;19919;-59
2022/12/21 05:05:04;;;;;;;;;;;20.40;63.30;;;;;;6349297;28;19954;-59
2022/12/21 05:08:06;;;;;;;;;;;20.20;63.10;;;;;;6348923;28;19920;-59
2022/12/21 05:11:09;;;;;;;;;;;20.30;63.10;;;;;;6349347;28;19977;-59
2022/12/21 05:14:11;;;;;;;;;;;20.60;63.20;;;;;;6347955;28;19920;-60
2022/12/21 05:17:12;;;;;;;;;;;20.50;63.40;;;;;;6348845;28;19919;-59
2022/12/21 05:20:13;;;;;;;;;;;20.50;63.30;;;;;;6349081;28;19931;-59
2022/12/21 05:23:15;;;;;;;;;;;21.10;63.70;;;;;;6348852;28;19919;-59
2022/12/21 05:26:17;;;;;;;;;;;20.30;63.10;;;;;;6348741;28;20411;-60
2022/12/21 05:29:18;;;;;;;;;;;20.50;62.90;;;;;;6348933;28;19919;-59
2022/12/21 05:32:19;;;;;;;;;;;20.70;63.30;;;;;;6348499;28;19920;-59
2022/12/21 05:35:21;;;;;;;;;;;20.50;62.40;;;;;;6348438;28;19920;-59
2022/12/21 05:38:24;;;;;;;;;;;20.60;63.00;;;;;;6348807;28;20015;-59
2022/12/21 05:41:25;;;;;;;;;;;20.30;62.80;;;;;;6348345;28;20381;-60
2022/12/21 05:44:27;;;;;;;;;;;20.70;63.20;;;;;;6348865;28;19920;-59
2022/12/21 05:47:28;;;;;;;;;;;20.70;63.00;;;;;;6348796;28;19919;-59
2022/12/21 05:50:29;;;;;;;;;;;20.80;63.30;;;;;;6348826;28;20364;-59
2022/12/21 05:53:31;;;;;;;;;;;20.20;63.10;;;;;;6348213;28;19926;-59
2022/12/21 05:56:34;;;;;;;;;;;20.70;63.20;;;;;;6348054;28;20283;-59
2022/12/21 05:59:36;;;;;;;;;;;20.10;62.90;;;;;;6348076;28;19924;-59
2022/12/21 06:02:37;;;;;;;;;;;20.30;63.00;;;;;;6347906;28;19924;-59
2022/12/21 06:05:39;;;;;;;;;;;21.30;63.50;;;;;;6348287;28;19967;-59
2022/12/21 06:08:41;;;;;;;;;;;20.30;62.90;;;;;;6347981;28;19979;-59
2022/12/21 06:11:42;;;;;;;;;;;20.30;63.00;;;;;;6347477;28;19919;-59
2022/12/21 06:14:43;;;;;;;;;;;20.40;62.90;;;;;;6348166;28;19919;-59
2022/12/21 06:17:45;;;;;;;;;;;20.80;63.10;;;;;;6348038;28;19927;-59
2022/12/21 06:20:50;;;;;;;;;;;20.10;63.00;;;;;;6347797;28;19927;-59
2022/12/21 06:23:52;;;;;;;;;;;20.50;62.80;;;;;;6346489;28;20371;-59
2022/12/21 06:26:53;;;;;;;;;;;20.70;63.10;;;;;;6347878;28;20395;-60
2022/12/21 06:29:55;;;;;;;;;;;21.00;63.20;;;;;;6347269;28;19965;-59
2022/12/21 06:32:56;;;;;;;;;;;20.30;62.80;;;;;;6347934;28;19920;-59
2022/12/21 06:35:57;;;;;;;;;;;20.60;62.30;;;;;;6347842;28;19924;-59
2022/12/21 06:38:59;;;;;;;;;;;20.70;62.70;;;;;;6347545;28;20397;-59
2022/12/21 06:42:01;;;;;;;;;;;20.90;63.20;;;;;;6347611;28;19919;-59
2022/12/21 06:45:03;;;;;;;;;;;20.80;63.30;;;;;;6347485;28;19920;-59
2022/12/21 06:48:05;;;;;;;;;;;20.20;62.60;;;;;;6347292;28;19920;-59
2022/12/21 06:51:07;;;;;;;;;;;20.50;62.80;;;;;;6347541;28;20290;-59
2022/12/21 06:54:10;;;;;;;;;;;20.90;59.80;;;;;;6347560;28;19919;-59
2022/12/21 06:57:11;;;;;;;;;;;20.60;62.80;;;;;;6345833;28;20011;-60
2022/12/21 07:00:14;;;;;;;;;;;20.30;62.80;;;;;;6346826;28;19973;-59
2022/12/21 07:03:15;;;;;;;;;;;20.70;62.70;;;;;;6346968;28;19919;-60
2022/12/21 07:06:17;;;;;;;;;;;21.10;63.30;;;;;;6346787;28;19968;-59
2022/12/21 07:09:19;;;;;;;;;;;20.70;62.70;;;;;;6350175;28;19919;-60
2022/12/21 07:12:20;;;;;;;;;;;20.80;62.80;;;;;;6351244;28;20386;-60
2022/12/21 07:15:22;;;;;;;;;;;20.30;62.20;;;;;;6350629;28;19927;-59
2022/12/21 07:18:23;;;;;;;;;;;21.10;63.10;;;;;;6351080;28;19920;-60
2022/12/21 07:21:25;;;;;;;;;;;20.90;62.70;;;;;;6350922;28;20279;-59
2022/12/21 07:24:27;;;;;;;;;;;20.80;62.10;;;;;;6349481;28;19943;-60
2022/12/21 07:27:28;;;;;;;;;;;20.80;62.80;;;;;;6350932;28;19972;-59
2022/12/21 07:30:30;;;;;;;;;;;21.20;63.00;;;;;;6350753;28;19923;-60
2022/12/21 07:33:31;;;;;;;;;;;20.60;61.70;;;;;;6351168;28;19951;-60
2022/12/21 07:36:33;;;;;;;;;;;21.40;63.00;;;;;;6350942;28;19920;-60
2022/12/21 07:39:35;;;;;;;;;;;21.00;62.00;;;;;;6350502;28;19919;-59
2022/12/21 07:42:36;;;;;;;;;;;21.20;62.50;;;;;;6350975;28;20271;-60
2022/12/21 07:45:49;;;;;;;;;;;20.60;62.20;;;;;;6351908;28;20014;-58
2022/12/21 07:48:52;;;;;;;;;;;21.30;62.80;;;;;;6352427;28;19919;-59
2022/12/21 07:51:53;;;;;;;;;;;20.90;62.00;;;;;;6352393;28;19927;-59
2022/12/21 07:54:55;;;;;;;;;;;21.40;62.60;;;;;;6351527;28;20288;-59
2022/12/21 07:57:56;;;;;;;;;;;20.80;63.00;;;;;;6350530;28;19920;-59
2022/12/21 08:01:03;;;;;;;;;;;21.00;62.20;;;;;;6349941;28;19923;-59
2022/12/21 08:04:07;;;;;;;;;;;20.70;62.00;;;;;;6350970;28;20291;-63
2022/12/21 08:07:09;;;;;;;;;;;21.20;61.70;;;;;;6350017;28;19920;-63
2022/12/21 08:10:11;;;;;;;;;;;21.00;62.00;;;;;;6349116;28;19919;-62
2022/12/21 08:13:12;;;;;;;;;;;21.10;62.00;;;;;;6349478;28;19927;-63
2022/12/21 08:16:15;;;;;;;;;;;21.00;62.00;;;;;;6351970;28;19933;-59
2022/12/21 08:19:16;;;;;;;;;;;21.50;62.10;;;;;;6353832;28;20053;-60
2022/12/21 08:22:18;;;;;;;;;;;20.60;61.70;;;;;;6355976;28;20265;-60
2022/12/21 08:25:20;;;;;;;;;;;21.30;60.30;;;;;;6360597;28;19920;-60
2022/12/21 08:28:22;;;;;;;;;;;21.40;61.90;;;;;;6366157;28;19904;-60
2022/12/21 08:31:23;;;;;;;;;;;21.80;62.30;;;;;;6350749;28;19926;-62
2022/12/21 08:34:25;;;;;;;;;;;21.00;61.00;;;;;;6350293;28;19920;-60
2022/12/21 08:37:26;;;;;;;;;;;21.00;61.70;;;;;;6349201;28;19919;-60
2022/12/21 08:40:28;;;;;;;;;;;21.00;61.60;;;;;;6349086;28;19930;-60
2022/12/21 08:43:30;;;;;;;;;;;21.50;61.90;;;;;;6349508;28;19920;-62
2022/12/21 08:46:32;;;;;;;;;;;20.90;61.50;;;;;;6351008;28;19919;-58
2022/12/21 08:49:33;;;;;;;;;;;21.90;62.00;;;;;;6351694;28;19927;-57
2022/12/21 08:52:35;;;;;;;;;;;21.00;61.10;;;;;;6356393;28;19919;-60
2022/12/21 08:55:37;;;;;;;;;;;21.70;62.10;;;;;;6357026;28;19931;-58
2022/12/21 08:58:39;;;;;;;;;;;21.20;61.70;;;;;;6356006;28;19927;-57
2022/12/21 09:01:40;;;;;;;;;;;21.20;61.50;;;;;;6353897;28;20005;-60
2022/12/21 09:04:42;;;;;;;;;;;21.30;61.50;;;;;;6351931;28;20056;-61
2022/12/21 09:07:43;;;;;;;;;;;21.60;62.20;;;;;;6351404;28;19924;-59
2022/12/21 09:10:45;;;;;;;;;;;21.20;61.60;;;;;;6351835;28;20347;-59
2022/12/21 09:13:47;;;;;;;;;;;21.60;61.40;;;;;;6351720;28;19991;-59
2022/12/21 09:16:48;;;;;;;;;;;21.50;61.80;;;;;;6350788;28;19926;-59
2022/12/21 09:19:49;;;;;;;;;;;21.80;62.00;;;;;;6349371;28;20018;-59
2022/12/21 09:22:51;;;;;;;;;;;21.40;61.50;;;;;;6355051;28;19919;-59
2022/12/21 09:25:53;;;;;;;;;;;21.90;61.80;;;;;;6353765;28;19927;-59
2022/12/21 09:28:54;;;;;;;;;;;20.90;61.20;;;;;;6351055;28;20367;-59
2022/12/21 09:31:56;;;;;;;;;;;21.80;61.70;;;;;;6352305;28;19919;-59
2022/12/21 09:34:57;;;;;;;;;;;21.30;60.70;;;;;;6350382;28;19937;-60
2022/12/21 09:37:59;;;;;;;;;;;22.10;61.90;;;;;;6349645;28;19928;-60
2022/12/21 09:41:02;;;;;;;;;;;21.50;61.20;;;;;;6350978;28;20287;-60
2022/12/21 09:44:13;;;;;;;;;;;22.10;61.70;;;;;;6348118;28;19927;-60
2022/12/21 09:47:18;;;;;;;;;;;21.60;61.40;;;;;;6349251;28;19978;-60
2022/12/21 09:50:20;;;;;;;;;;;21.80;61.50;;;;;;6350470;28;20321;-59
2022/12/21 09:53:25;;;;;;;;;;;21.10;61.10;;;;;;6348565;28;19920;-60
2022/12/21 09:56:28;;;;;;;;;;;21.70;61.40;;;;;;6348452;28;19954;-60
2022/12/21 09:59:30;;;;;;;;;;;21.60;61.40;;;;;;6349043;28;20437;-60
2022/12/21 10:02:40;;;;;;;;;;;21.90;61.50;;;;;;6348327;28;19919;-60
2022/12/21 10:05:47;;;;;;;;;;;21.40;61.20;;;;;;6348150;28;19924;-60
2022/12/21 10:08:57;;;;;;;;;;;21.90;61.50;;;;;;6347818;28;19934;-60
2022/12/21 10:12:10;;;;;;;;;;;22.10;61.40;;;;;;6347670;28;19926;-59
2022/12/21 10:15:18;;;;;;;;;;;22.10;61.40;;;;;;6347762;28;19926;-59
2022/12/21 10:18:25;;;;;;;;;;;21.60;61.30;;;;;;6347121;28;20268;-59
2022/12/21 10:21:31;;;;;;;;;;;21.90;61.10;;;;;;6347004;28;20402;-58
2022/12/21 10:24:36;;;;;;;;;;;21.30;60.90;;;;;;6347649;28;19920;-59
2022/12/21 10:27:40;;;;;;;;;;;21.80;61.00;;;;;;6345720;28;19927;-58
2022/12/21 10:30:45;;;;;;;;;;;21.70;61.40;;;;;;6346899;28;20318;-59
2022/12/21 10:33:49;;;;;;;;;;;21.40;60.50;;;;;;6346476;28;19920;-59
2022/12/21 10:36:54;;;;;;;;;;;21.70;61.30;;;;;;6347120;28;19931;-59
2022/12/21 10:39:56;;;;;;;;;;;21.90;61.30;;;;;;6346362;28;19920;-60
2022/12/21 10:42:59;;;;;;;;;;;21.60;61.00;;;;;;6348600;28;19923;-59
2022/12/21 10:46:00;;;;;;;;;;;21.90;61.30;;;;;;6351408;28;19962;-59
2022/12/21 10:49:14;;;;;;;;;;;21.50;60.80;;;;;;6351286;28;19920;-58
2022/12/21 10:52:31;;;;;;;;;;;22.10;61.20;;;;;;6351139;28;19969;-59
2022/12/21 10:55:35;;;;;;;;;;;21.90;61.10;;;;;;6350588;28;19920;-59
2022/12/21 10:58:37;;;;;;;;;;;22.40;61.40;;;;;;6351331;28;19954;-59
2022/12/21 11:01:38;;;;;;;;;;;21.80;61.20;;;;;;6350911;28;19967;-60
2022/12/21 11:04:40;;;;;;;;;;;21.70;61.10;;;;;;6351598;28;20391;-59
2022/12/21 11:07:41;;;;;;;;;;;21.80;60.80;;;;;;6352873;28;19919;-59
2022/12/21 11:11:02;;;;;;;;;;;21.80;61.40;;;;;;6353678;28;19919;-59
2022/12/21 11:14:12;;;;;;;;;;;21.60;61.00;;;;;;6352705;28;19923;-59
2022/12/21 11:17:17;;;;;;;;;;;22.40;62.00;;;;;;6350755;28;19923;-58
2022/12/21 11:20:20;;;;;;;;;;;21.60;61.60;;;;;;6351210;28;20343;-58
2022/12/21 11:23:21;;;;;;;;;;;22.30;62.10;;;;;;6351494;28;19919;-59
2022/12/21 11:26:24;;;;;;;;;;;21.50;61.80;;;;;;6351039;28;19920;-59
2022/12/21 11:29:28;;;;;;;;;;;22.10;62.10;;;;;;6350658;28;20381;-59
2022/12/21 11:32:30;;;;;;;;;;;21.90;62.30;;;;;;6350942;28;19919;-59
2022/12/21 11:35:34;;;;;;;;;;;21.60;61.60;;;;;;6350514;28;20317;-59
2022/12/21 11:38:36;;;;;;;;;;;21.60;62.10;;;;;;6349476;28;19919;-59
2022/12/21 11:41:37;;;;;;;;;;;22.10;62.50;;;;;;6349299;28;19920;-59
2022/12/21 11:44:39;;;;;;;;;;;21.60;62.40;;;;;;6350263;28;19980;-59
2022/12/21 11:47:46;;;;;;;;;;;22.30;62.90;;;;;;6350214;28;19919;-59
2022/12/21 11:50:53;;;;;;;;;;;21.90;62.40;;;;;;6350153;28;19923;-59
2022/12/21 11:54:09;;;;;;;;;;;21.90;62.10;;;;;;6349756;28;20398;-59
2022/12/21 11:57:24;;;;;;;;;;;21.80;62.30;;;;;;6350263;28;20026;-59
2022/12/21 12:00:29;;;;;;;;;;;22.30;62.40;;;;;;6349970;28;20387;-59
2022/12/21 12:03:55;;;;;;;;;;;21.80;62.40;;;;;;6349036;28;19919;-59
2022/12/21 12:07:07;;;;;;;;;;;22.10;62.60;;;;;;6350670;28;19927;-59
2022/12/21 12:10:17;;;;;;;;;;;21.70;62.30;;;;;;6350417;28;19919;-59
2022/12/21 12:13:26;;;;;;;;;;;21.90;62.40;;;;;;6350271;28;19927;-58
2022/12/21 12:16:42;;;;;;;;;;;21.50;62.20;;;;;;6350390;28;19920;-59
2022/12/21 12:19:48;;;;;;;;;;;22.40;62.60;;;;;;6350259;28;20035;-59
2022/12/21 12:22:59;;;;;;;;;;;22.00;62.40;;;;;;6350225;28;19920;-59
2022/12/21 12:26:06;;;;;;;;;;;22.30;62.70;;;;;;6349735;28;20386;-59
2022/12/21 12:29:18;;;;;;;;;;;21.90;62.30;;;;;;6349853;28;19923;-59
2022/12/21 12:32:28;;;;;;;;;;;22.30;62.60;;;;;;6349182;28;19926;-59
2022/12/21 12:35:43;;;;;;;;;;;21.90;62.00;;;;;;6349842;28;19980;-59
2022/12/21 12:38:50;;;;;;;;;;;22.40;62.80;;;;;;6349675;28;19920;-57
2022/12/21 12:41:56;;;;;;;;;;;21.60;62.30;;;;;;6348695;28;19942;-57
2022/12/21 12:45:02;;;;;;;;;;;22.00;62.60;;;;;;6349660;28;20359;-58
2022/12/21 12:48:11;;;;;;;;;;;22.00;62.50;;;;;;6349097;28;19920;-58
2022/12/21 12:51:16;;;;;;;;;;;22.30;62.70;;;;;;6349355;28;19943;-59
2022/12/21 12:54:25;;;;;;;;;;;21.70;62.20;;;;;;6348971;28;19923;-59
2022/12/21 12:57:31;;;;;;;;;;;22.40;62.60;;;;;;6349139;28;19919;-59
2022/12/21 13:00:38;;;;;;;;;;;21.80;62.10;;;;;;6348634;28;19919;-58
2022/12/21 13:03:48;;;;;;;;;;;22.10;62.10;;;;;;6348390;28;19919;-59
2022/12/21 13:06:53;;;;;;;;;;;21.60;61.80;;;;;;6347832;28;19941;-59
2022/12/21 13:09:58;;;;;;;;;;;22.50;62.30;;;;;;6348436;28;19919;-59
2022/12/21 13:13:02;;;;;;;;;;;22.10;61.80;;;;;;6348241;28;20023;-58
2022/12/21 13:16:07;;;;;;;;;;;22.30;62.10;;;;;;6348261;28;19919;-58
2022/12/21 13:19:11;;;;;;;;;;;21.70;61.80;;;;;;6347059;28;19923;-58
2022/12/21 13:22:14;;;;;;;;;;;22.30;62.20;;;;;;6348078;28;19993;-58
2022/12/21 13:25:19;;;;;;;;;;;22.00;61.80;;;;;;6346977;28;20363;-58
2022/12/21 13:28:24;;;;;;;;;;;22.30;62.10;;;;;;6346636;28;20442;-58
2022/12/21 13:31:27;;;;;;;;;;;21.60;63.30;;;;;;6347533;28;19935;-58
2022/12/21 13:34:34;;;;;;;;;;;21.90;61.50;;;;;;6346609;28;20414;-58
2022/12/21 13:37:37;;;;;;;;;;;22.20;62.10;;;;;;6348617;28;19923;-58
2022/12/21 13:40:39;;;;;;;;;;;22.20;62.30;;;;;;6347629;28;19931;-58
2022/12/21 13:43:42;;;;;;;;;;;21.90;62.00;;;;;;6348384;28;19959;-59
2022/12/21 13:47:06;;;;;;;;;;;22.20;61.90;;;;;;6332328;28;19970;-58
2022/12/21 13:50:17;;;;;;;;;;;21.80;61.90;;;;;;6347502;28;19926;-58
2022/12/21 13:53:23;;;;;;;;;;;22.30;62.30;;;;;;6351522;28;20433;-57
2022/12/21 13:56:30;;;;;;;;;;;22.10;62.10;;;;;;6347723;28;19920;-57
2022/12/21 13:59:36;;;;;;;;;;;22.10;61.70;;;;;;6347471;28;19949;-58
2022/12/21 14:02:43;;;;;;;;;;;22.10;62.00;;;;;;6347113;28;19923;-57
2022/12/21 14:05:50;;;;;;;;;;;22.10;62.00;;;;;;6347240;28;19923;-57
2022/12/21 14:09:00;;;;;;;;;;;22.20;62.30;;;;;;6347567;28;19927;-57
2022/12/21 14:12:13;;;;;;;;;;;21.60;62.70;;;;;;6346617;28;20325;-57
2022/12/21 14:15:41;;;;;;;;;;;22.00;62.10;;;;;;6348043;28;19969;-58
2022/12/21 14:18:42;;;;;;;;;;;22.60;62.40;;;;;;6347395;28;19926;-55
2022/12/21 14:21:45;;;;;;;;;;;22.10;62.10;;;;;;6347278;28;19966;-57
2022/12/21 14:24:47;;;;;;;;;;;22.40;62.10;;;;;;6346830;28;19927;-59
2022/12/21 14:28:03;;;;;;;;;;;21.80;61.70;;;;;;6347249;28;19919;-59
2022/12/21 14:31:12;;;;;;;;;;;22.70;62.40;;;;;;6345464;28;19926;-58
2022/12/21 14:34:14;;;;;;;;;;;21.90;61.40;;;;;;6358835;28;19923;-58
2022/12/21 14:37:36;;;;;;;;;;;22.20;62.30;;;;;;6348115;28;19926;-58
2022/12/21 14:40:50;;;;;;;;;;;21.70;61.90;;;;;;6350911;28;19972;-59
2022/12/21 14:44:05;;;;;;;;;;;22.20;61.90;;;;;;6355029;28;19920;-59
2022/12/21 14:47:20;;;;;;;;;;;22.10;61.80;;;;;;6349521;28;19919;-58
2022/12/21 14:50:37;;;;;;;;;;;22.20;58.80;;;;;;6347668;28;19981;-59
2022/12/21 14:53:50;;;;;;;;;;;22.00;61.70;;;;;;6347594;28;19924;-59
2022/12/21 14:57:07;;;;;;;;;;;23.10;62.30;;;;;;6349080;28;19923;-59
2022/12/21 15:00:23;;;;;;;;;;;22.00;61.80;;;;;;6351989;28;19924;-61
2022/12/21 15:03:24;;;;;;;;;;;22.40;62.00;;;;;;6350737;28;19919;-58
2022/12/21 15:06:28;;;;;;;;;;;22.30;62.10;;;;;;6352759;28;20275;-59
2022/12/21 15:09:31;;;;;;;;;;;22.40;61.10;;;;;;6347501;28;19927;-59
2022/12/21 15:12:38;;;;;;;;;;;21.90;61.90;;;;;;6347973;28;19980;-57
2022/12/21 15:15:39;;;;;;;;;;;22.50;62.00;;;;;;6348674;28;19919;-58
2022/12/21 15:18:52;;;;;;;;;;;22.10;61.30;;;;;;6348087;28;19926;-58
2022/12/21 15:22:09;;;;;;;;;;;22.20;61.70;;;;;;6347282;28;20021;-58
2022/12/21 15:25:14;;;;;;;;;;;22.30;62.00;;;;;;6347286;28;20302;-58
2022/12/21 15:28:18;;;;;;;;;;;22.90;62.20;;;;;;6349576;28;19919;-58
2022/12/21 15:31:23;;;;;;;;;;;22.30;61.60;;;;;;6352991;28;19920;-58
2022/12/21 15:34:26;;;;;;;;;;;22.20;61.30;;;;;;6351339;28;19920;-58
2022/12/21 15:37:29;;;;;;;;;;;22.40;61.90;;;;;;6351430;28;19924;-59
2022/12/21 15:40:36;;;;;;;;;;;22.40;61.10;;;;;;6351800;28;19988;-59
2022/12/21 15:43:39;;;;;;;;;;;21.90;61.40;;;;;;6351560;28;19919;-58
2022/12/21 15:46:44;;;;;;;;;;;22.90;62.10;;;;;;6351695;28;19926;-59
2022/12/21 15:49:48;;;;;;;;;;;22.20;61.60;;;;;;6351835;28;19943;-59
2022/12/21 15:52:53;;;;;;;;;;;22.60;61.80;;;;;;6351476;28;19920;-59
2022/12/21 15:55:55;;;;;;;;;;;22.30;61.70;;;;;;6351402;28;20083;-59
2022/12/21 15:58:57;;;;;;;;;;;22.50;62.10;;;;;;6350419;28;19964;-58
2022/12/21 16:01:59;;;;;;;;;;;22.30;61.80;;;;;;6352192;28;19923;-58
2022/12/21 16:05:01;;;;;;;;;;;23.00;63.00;;;;;;6351832;28;19934;-58
2022/12/21 16:08:03;;;;;;;;;;;22.30;61.70;;;;;;6351507;28;19919;-58
2022/12/21 16:11:05;;;;;;;;;;;22.60;62.10;;;;;;6350198;28;19926;-58
2022/12/21 16:14:09;;;;;;;;;;;22.40;62.10;;;;;;6350498;28;20499;-58
2022/12/21 16:17:16;;;;;;;;;;;22.60;62.00;;;;;;6350587;28;20363;-58
2022/12/21 16:20:20;;;;;;;;;;;22.50;61.80;;;;;;6351045;28;19973;-58
2022/12/21 16:23:23;;;;;;;;;;;23.00;62.10;;;;;;6351006;28;20383;-58
2022/12/21 16:26:26;;;;;;;;;;;22.50;61.90;;;;;;6350005;28;20256;-58
2022/12/21 16:29:28;;;;;;;;;;;23.20;62.40;;;;;;6350991;28;19927;-58
2022/12/21 16:32:32;;;;;;;;;;;22.60;61.90;;;;;;6349267;28;19926;-58
2022/12/21 16:35:33;;;;;;;;;;;22.50;61.50;;;;;;6350719;28;20359;-58
2022/12/21 16:38:36;;;;;;;;;;;22.50;62.10;;;;;;6349973;28;19928;-59
2022/12/21 16:41:38;;;;;;;;;;;22.50;61.80;;;;;;6350936;28;19966;-59
2022/12/21 16:44:43;;;;;;;;;;;22.60;62.20;;;;;;6350798;28;19927;-58
2022/12/21 16:47:44;;;;;;;;;;;22.60;62.10;;;;;;6349909;28;19920;-58
2022/12/21 16:50:46;;;;;;;;;;;22.20;61.60;;;;;;6349781;28;19919;-59
2022/12/21 16:53:47;;;;;;;;;;;22.90;62.20;;;;;;6352745;28;19981;-58
2022/12/21 16:56:54;;;;;;;;;;;22.90;61.90;;;;;;6356730;28;19926;-58
2022/12/21 16:59:57;;;;;;;;;;;23.10;62.30;;;;;;6349831;28;19920;-58
2022/12/21 17:03:01;;;;;;;;;;;22.10;61.80;;;;;;6350028;28;20304;-57
2022/12/21 17:06:02;;;;;;;;;;;22.50;62.00;;;;;;6356645;28;19926;-58
2022/12/21 17:09:07;;;;;;;;;;;22.20;61.70;;;;;;6360797;28;19927;-58
2022/12/21 17:12:14;;;;;;;;;;;23.00;62.20;;;;;;6357520;28;19920;-58
2022/12/21 17:15:25;;;;;;;;;;;22.40;61.40;;;;;;6441247;22;19920;-58
2022/12/21 17:18:41;;;;;;;;;;;22.30;60.90;;;;;;6550321;22;19954;-60
2022/12/21 17:21:54;;;;;;;;;;;22.50;61.70;;;;;;6315651;28;20015;-59
2022/12/21 17:25:10;;;;;;;;;;;22.50;61.70;;;;;;6326626;28;19927;-58
2022/12/21 17:28:12;;;;;;;;;;;22.00;61.60;;;;;;6315274;28;19920;-58
2022/12/21 17:31:15;;;;;;;;;;;22.50;62.10;;;;;;6322918;28;19931;-58
2022/12/21 17:34:19;;;;;;;;;;;22.40;61.60;;;;;;6306357;28;20280;-58
2022/12/21 17:37:22;;;;;;;;;;;22.70;62.00;;;;;;6306667;28;19920;-58
2022/12/21 17:40:24;;;;;;;;;;;22.40;62.20;;;;;;6324210;28;19920;-58
2022/12/21 17:43:26;;;;;;;;;;;23.00;62.50;;;;;;6327754;28;19927;-59
2022/12/21 17:46:28;;;;;;;;;;;22.50;62.40;;;;;;6324021;28;19920;-59
2022/12/21 17:49:29;;;;;;;;;;;22.60;62.50;;;;;;6323562;28;19926;-59
2022/12/21 17:52:31;;;;;;;;;;;22.50;62.50;;;;;;6322834;28;20298;-59
2022/12/21 17:55:32;;;;;;;;;;;22.90;62.70;;;;;;6323930;28;20268;-59
2022/12/21 17:58:34;;;;;;;;;;;22.40;62.20;;;;;;6323666;28;19920;-59
2022/12/21 18:01:36;;;;;;;;;;;22.40;62.60;;;;;;6323735;28;20287;-59